createdAt,value
2019-05-09T00:00:33.580Z,10.63
2019-05-09T00:01:33.564Z,10.57
2019-05-09T00:02:33.682Z,10.54
2019-05-09T00:03:33.547Z,10.39
2019-05-09T00:04:33.775Z,10.25
2019-05-09T00:05:33.575Z,10.28
2019-05-09T00:06:34.019Z,10.29
2019-05-09T00:07:33.692Z,10.22
2019-05-09T00:08:34.750Z,10.25
2019-05-09T00:09:33.770Z,10.13
2019-05-09T00:10:39.465Z,10.14
2019-05-09T00:11:35.319Z,10.06
2019-05-09T00:12:33.650Z,10.13
2019-05-09T00:13:34.597Z,10.07
2019-05-09T00:14:34.333Z,10.09
2019-05-09T00:15:34.910Z,10.06
2019-05-09T00:16:34.046Z,10.10
2019-05-09T00:17:34.203Z,10.09
2019-05-09T00:18:34.388Z,10.11
2019-05-09T00:19:34.569Z,10.07
2019-05-09T00:20:34.814Z,10.04
2019-05-09T00:21:34.991Z,10.32
2019-05-09T00:22:35.180Z,10.20
2019-05-09T00:23:35.363Z,10.11
2019-05-09T00:24:35.548Z,10.20
2019-05-09T00:25:35.742Z,9.93
2019-05-09T00:26:35.903Z,9.88
2019-05-09T00:27:36.074Z,9.75
2019-05-09T00:28:36.254Z,9.83
2019-05-09T00:29:36.438Z,10.01
2019-05-09T00:30:36.629Z,10.09
2019-05-09T00:31:36.813Z,9.91
2019-05-09T00:32:36.987Z,9.86
2019-05-09T00:33:37.172Z,9.89
2019-05-09T00:34:37.357Z,9.93
2019-05-09T00:35:37.531Z,9.99
2019-05-09T00:36:37.719Z,10.01
2019-05-09T00:37:37.867Z,9.93
2019-05-09T00:38:38.753Z,10.11
2019-05-09T00:39:38.128Z,10.24
2019-05-09T00:40:51.618Z,10.18
2019-05-09T00:41:38.777Z,10.17
2019-05-09T00:42:38.568Z,10.10
2019-05-09T00:43:38.754Z,10.13
2019-05-09T00:44:38.928Z,10.06
2019-05-09T00:45:39.093Z,10.01
2019-05-09T00:46:39.286Z,10.28
2019-05-09T00:47:40.266Z,10.32
2019-05-09T00:48:39.658Z,10.32
2019-05-09T00:49:39.825Z,10.52
2019-05-09T00:50:40.755Z,10.60
2019-05-09T00:51:40.764Z,10.47
2019-05-09T00:52:40.309Z,10.43
2019-05-09T00:53:40.474Z,10.34
2019-05-09T00:54:40.621Z,10.39
2019-05-09T00:55:40.796Z,10.20
2019-05-09T00:56:40.960Z,10.20
2019-05-09T00:57:41.140Z,10.28
2019-05-09T00:58:41.329Z,10.24
2019-05-09T00:59:41.499Z,10.07
2019-05-09T01:00:43.782Z,10.10
2019-05-09T01:01:43.715Z,10.11
2019-05-09T01:02:43.564Z,10.17
2019-05-09T01:03:43.383Z,10.32
2019-05-09T01:04:43.811Z,10.54
2019-05-09T01:05:44.111Z,10.66
2019-05-09T01:06:43.515Z,10.43
2019-05-09T01:07:44.072Z,10.39
2019-05-09T01:08:44.214Z,10.29
2019-05-09T01:09:44.574Z,10.47
2019-05-09T01:10:43.782Z,10.52
2019-05-09T01:11:44.163Z,10.42
2019-05-09T01:12:45.118Z,10.22
2019-05-09T01:13:44.245Z,10.24
2019-05-09T01:14:44.427Z,10.20
2019-05-09T01:15:44.587Z,10.11
2019-05-09T01:16:44.772Z,10.01
2019-05-09T01:17:44.947Z,10.06
2019-05-09T01:18:45.107Z,10.04
2019-05-09T01:19:45.304Z,10.02
2019-05-09T01:20:45.518Z,10.02
2019-05-09T01:21:45.715Z,9.98
2019-05-09T01:22:45.894Z,10.07
2019-05-09T01:23:46.767Z,9.95
2019-05-09T01:24:46.301Z,10.01
2019-05-09T01:25:46.784Z,10.01
2019-05-09T01:26:47.265Z,10.01
2019-05-09T01:27:46.939Z,10.10
2019-05-09T01:28:47.119Z,10.01
2019-05-09T01:29:48.256Z,9.86
2019-05-09T01:30:48.450Z,10.04
2019-05-09T01:31:47.613Z,9.95
2019-05-09T01:32:47.790Z,9.85
2019-05-09T01:33:48.760Z,9.88
2019-05-09T01:34:48.197Z,9.95
2019-05-09T01:35:48.430Z,9.78
2019-05-09T01:36:48.636Z,9.85
2019-05-09T01:37:48.807Z,9.70
2019-05-09T01:38:48.989Z,9.75
2019-05-09T01:39:49.172Z,9.88
2019-05-09T01:40:49.390Z,9.81
2019-05-09T01:41:49.600Z,9.83
2019-05-09T01:42:50.270Z,9.73
2019-05-09T01:43:49.955Z,9.77
2019-05-09T01:44:50.149Z,9.80
2019-05-09T01:45:50.369Z,9.70
2019-05-09T01:46:53.872Z,9.52
2019-05-09T01:47:50.787Z,9.53
2019-05-09T01:48:50.931Z,9.50
2019-05-09T01:49:53.744Z,9.52
2019-05-09T01:50:51.254Z,9.50
2019-05-09T01:51:53.549Z,9.45
2019-05-09T01:52:53.364Z,9.37
2019-05-09T01:53:53.197Z,9.41
2019-05-09T01:54:54.127Z,9.32
2019-05-09T01:55:53.998Z,9.22
2019-05-09T01:56:53.831Z,9.35
2019-05-09T01:57:53.946Z,9.42
2019-05-09T01:58:54.038Z,9.42
2019-05-09T01:59:54.015Z,9.50
2019-05-09T02:00:54.078Z,9.50
2019-05-09T02:01:54.384Z,9.52
2019-05-09T02:02:54.008Z,9.52
2019-05-09T02:03:54.586Z,9.50
2019-05-09T02:04:54.278Z,9.41
2019-05-09T02:05:53.916Z,9.42
2019-05-09T02:06:54.163Z,9.48
2019-05-09T02:07:54.369Z,9.38
2019-05-09T02:08:54.796Z,9.40
2019-05-09T02:09:54.761Z,9.30
2019-05-09T02:10:54.958Z,9.08
2019-05-09T02:11:55.159Z,9.13
2019-05-09T02:12:55.351Z,9.04
2019-05-09T02:13:55.797Z,9.17
2019-05-09T02:14:55.725Z,9.20
2019-05-09T02:15:55.906Z,9.06
2019-05-09T02:16:56.086Z,9.00
2019-05-09T02:18:01.621Z,8.98
2019-05-09T02:18:58.403Z,8.91
2019-05-09T02:19:56.645Z,9.10
2019-05-09T02:20:56.801Z,9.24
2019-05-09T02:21:56.975Z,9.23
2019-05-09T02:22:57.293Z,9.27
2019-05-09T02:23:57.323Z,9.22
2019-05-09T02:24:57.516Z,9.27
2019-05-09T02:25:57.699Z,9.31
2019-05-09T02:26:57.922Z,9.26
2019-05-09T02:27:58.135Z,9.15
2019-05-09T02:28:58.319Z,9.06
2019-05-09T02:29:58.483Z,9.03
2019-05-09T02:30:59.289Z,9.13
2019-05-09T02:31:58.814Z,9.12
2019-05-09T02:32:58.995Z,9.17
2019-05-09T02:33:59.176Z,9.15
2019-05-09T02:34:59.800Z,8.91
2019-05-09T02:36:02.036Z,8.76
2019-05-09T02:37:00.802Z,9.00
2019-05-09T02:37:59.920Z,9.03
2019-05-09T02:39:00.771Z,8.93
2019-05-09T02:40:01.295Z,8.89
2019-05-09T02:41:00.406Z,9.03
2019-05-09T02:42:08.749Z,9.13
2019-05-09T02:43:02.760Z,9.20
2019-05-09T02:44:00.991Z,9.12
2019-05-09T02:45:01.158Z,8.98
2019-05-09T02:46:01.794Z,8.97
2019-05-09T02:47:01.419Z,9.01
2019-05-09T02:48:01.564Z,9.04
2019-05-09T02:49:01.695Z,8.98
2019-05-09T02:50:02.795Z,9.20
2019-05-09T02:51:02.301Z,9.13
2019-05-09T02:52:02.792Z,9.12
2019-05-09T02:53:02.431Z,9.16
2019-05-09T02:54:03.294Z,9.23
2019-05-09T02:55:02.768Z,9.30
2019-05-09T02:56:02.908Z,9.24
2019-05-09T02:57:03.052Z,9.20
2019-05-09T02:58:03.211Z,9.22
2019-05-09T02:59:03.435Z,9.24
2019-05-09T03:00:03.623Z,9.17
2019-05-09T03:01:03.779Z,9.24
2019-05-09T03:02:03.957Z,9.13
2019-05-09T03:03:04.106Z,9.32
2019-05-09T03:04:04.266Z,9.32
2019-05-09T03:05:04.414Z,9.30
2019-05-09T03:06:04.601Z,9.26
2019-05-09T03:07:04.750Z,9.55
2019-05-09T03:08:04.930Z,9.44
2019-05-09T03:09:08.664Z,9.45
2019-05-09T03:10:05.212Z,9.27
2019-05-09T03:11:05.366Z,9.41
2019-05-09T03:12:22.768Z,9.44
2019-05-09T03:13:09.020Z,9.34
2019-05-09T03:14:09.198Z,9.32
2019-05-09T03:15:09.162Z,9.31
2019-05-09T03:16:08.569Z,9.38
2019-05-09T03:17:08.739Z,9.15
2019-05-09T03:18:08.911Z,9.12
2019-05-09T03:19:09.051Z,9.13
2019-05-09T03:20:09.593Z,9.16
2019-05-09T03:21:09.163Z,9.20
2019-05-09T03:22:08.826Z,9.26
2019-05-09T03:23:09.278Z,9.19
2019-05-09T03:24:09.843Z,9.20
2019-05-09T03:25:09.798Z,9.16
2019-05-09T03:26:09.158Z,9.24
2019-05-09T03:27:09.497Z,9.34
2019-05-09T03:28:09.716Z,9.38
2019-05-09T03:29:10.797Z,9.38
2019-05-09T03:30:11.963Z,9.38
2019-05-09T03:31:10.175Z,9.37
2019-05-09T03:32:09.625Z,9.34
2019-05-09T03:33:10.478Z,9.34
2019-05-09T03:34:10.686Z,9.27
2019-05-09T03:35:09.793Z,9.27
2019-05-09T03:36:10.313Z,9.22
2019-05-09T03:37:10.111Z,9.16
2019-05-09T03:38:10.306Z,9.31
2019-05-09T03:39:10.491Z,9.24
2019-05-09T03:40:10.657Z,9.30
2019-05-09T03:41:10.813Z,9.27
2019-05-09T03:42:10.976Z,9.19
2019-05-09T03:43:11.137Z,9.24
2019-05-09T03:44:11.330Z,9.34
2019-05-09T03:45:11.506Z,9.22
2019-05-09T03:46:11.657Z,9.37
2019-05-09T03:47:11.794Z,9.26
2019-05-09T03:48:11.962Z,9.27
2019-05-09T03:49:12.114Z,9.17
2019-05-09T03:50:12.249Z,9.23
2019-05-09T03:51:12.409Z,9.23
2019-05-09T03:52:12.563Z,9.30
2019-05-09T03:53:12.738Z,9.52
2019-05-09T03:54:12.915Z,9.62
2019-05-09T03:55:13.059Z,9.45
2019-05-09T03:56:14.215Z,9.50
2019-05-09T03:57:13.453Z,9.35
2019-05-09T03:58:13.618Z,9.23
2019-05-09T03:59:13.754Z,9.35
2019-05-09T04:00:13.895Z,9.34
2019-05-09T04:01:14.052Z,9.41
2019-05-09T04:02:14.180Z,9.34
2019-05-09T04:03:14.332Z,9.31
2019-05-09T04:04:14.509Z,9.27
2019-05-09T04:05:14.640Z,9.31
2019-05-09T04:06:14.821Z,9.32
2019-05-09T04:07:14.981Z,9.17
2019-05-09T04:08:15.126Z,9.30
2019-05-09T04:09:17.795Z,9.27
2019-05-09T04:10:17.894Z,9.26
2019-05-09T04:11:15.698Z,9.26
2019-05-09T04:12:18.140Z,9.20
2019-05-09T04:13:18.019Z,9.19
2019-05-09T04:14:17.887Z,9.12
2019-05-09T04:15:19.174Z,9.12
2019-05-09T04:16:17.341Z,9.13
2019-05-09T04:17:18.216Z,9.23
2019-05-09T04:18:17.893Z,9.26
2019-05-09T04:19:17.586Z,9.23
2019-05-09T04:20:18.321Z,9.27
2019-05-09T04:21:17.611Z,9.23
2019-05-09T04:22:18.570Z,9.37
2019-05-09T04:23:18.662Z,9.42
2019-05-09T04:24:18.915Z,9.35
2019-05-09T04:25:18.229Z,9.38
2019-05-09T04:26:19.185Z,9.24
2019-05-09T04:27:18.340Z,8.97
2019-05-09T04:28:18.490Z,9.10
2019-05-09T04:29:18.642Z,8.88
2019-05-09T04:30:18.818Z,9.16
2019-05-09T04:31:18.986Z,9.12
2019-05-09T04:32:19.161Z,9.19
2019-05-09T04:33:19.331Z,9.24
2019-05-09T04:34:19.478Z,9.06
2019-05-09T04:35:19.627Z,9.00
2019-05-09T04:36:19.805Z,9.03
2019-05-09T04:37:19.933Z,8.91
2019-05-09T04:38:20.177Z,8.86
2019-05-09T04:39:23.601Z,8.83
2019-05-09T04:40:21.429Z,8.73
2019-05-09T04:41:23.900Z,8.73
2019-05-09T04:42:21.796Z,8.61
2019-05-09T04:43:34.278Z,8.71
2019-05-09T04:44:23.164Z,8.85
2019-05-09T04:45:21.369Z,8.86
2019-05-09T04:46:24.350Z,8.97
2019-05-09T04:47:22.613Z,9.12
2019-05-09T04:48:24.060Z,9.26
2019-05-09T04:49:23.801Z,9.35
2019-05-09T04:50:24.856Z,9.23
2019-05-09T04:51:23.382Z,9.38
2019-05-09T04:52:22.513Z,9.50
2019-05-09T04:53:22.701Z,9.71
2019-05-09T04:54:22.888Z,9.92
2019-05-09T04:55:23.060Z,10.02
2019-05-09T04:56:23.199Z,10.10
2019-05-09T04:57:23.358Z,10.35
2019-05-09T04:58:23.493Z,10.66
2019-05-09T04:59:23.655Z,10.75
2019-05-09T05:00:23.812Z,10.81
2019-05-09T05:01:23.950Z,10.69
2019-05-09T05:02:24.128Z,10.88
2019-05-09T05:03:24.291Z,11.03
2019-05-09T05:04:25.310Z,11.06
2019-05-09T05:05:24.589Z,11.21
2019-05-09T05:06:24.755Z,11.33
2019-05-09T05:07:24.955Z,11.38
2019-05-09T05:08:25.111Z,11.30
2019-05-09T05:09:27.588Z,11.21
2019-05-09T05:10:27.318Z,11.19
2019-05-09T05:11:27.767Z,11.13
2019-05-09T05:12:27.722Z,11.45
2019-05-09T05:13:27.351Z,11.31
2019-05-09T05:14:28.113Z,11.35
2019-05-09T05:15:27.676Z,11.36
2019-05-09T05:16:27.520Z,11.41
2019-05-09T05:17:30.248Z,11.79
2019-05-09T05:18:28.440Z,11.93
2019-05-09T05:19:31.193Z,11.93
2019-05-09T05:20:28.809Z,11.82
2019-05-09T05:21:28.479Z,11.49
2019-05-09T05:22:28.386Z,11.48
2019-05-09T05:23:28.780Z,11.39
2019-05-09T05:24:28.321Z,11.24
2019-05-09T05:25:28.114Z,11.06
2019-05-09T05:26:28.341Z,11.11
2019-05-09T05:27:28.522Z,10.83
2019-05-09T05:28:50.325Z,10.68
2019-05-09T05:29:28.933Z,10.57
2019-05-09T05:30:29.809Z,10.54
2019-05-09T05:31:29.823Z,10.58
2019-05-09T05:32:29.500Z,10.55
2019-05-09T05:33:29.739Z,10.52
2019-05-09T05:34:29.919Z,10.46
2019-05-09T05:35:30.058Z,10.49
2019-05-09T05:36:30.811Z,10.58
2019-05-09T05:37:30.457Z,10.58
2019-05-09T05:38:30.637Z,10.87
2019-05-09T05:39:30.770Z,10.83
2019-05-09T05:40:33.685Z,10.69
2019-05-09T05:41:32.120Z,11.02
2019-05-09T05:42:31.368Z,11.09
2019-05-09T05:43:41.612Z,11.31
2019-05-09T05:44:34.315Z,11.72
2019-05-09T05:45:31.914Z,12.34
2019-05-09T05:46:32.053Z,12.89
2019-05-09T05:47:32.204Z,12.36
2019-05-09T05:48:33.319Z,12.13
2019-05-09T05:49:32.568Z,12.03
2019-05-09T05:50:32.742Z,11.93
2019-05-09T05:51:32.913Z,12.07
2019-05-09T05:52:33.062Z,12.12
2019-05-09T05:53:33.256Z,12.08
2019-05-09T05:54:33.417Z,12.13
2019-05-09T05:55:34.310Z,11.98
2019-05-09T05:56:33.687Z,12.01
2019-05-09T05:57:33.836Z,12.31
2019-05-09T05:58:34.329Z,12.38
2019-05-09T05:59:37.308Z,12.49
2019-05-09T06:00:37.615Z,12.26
2019-05-09T06:01:34.633Z,12.16
2019-05-09T06:02:34.783Z,11.94
2019-05-09T06:03:34.899Z,11.77
2019-05-09T06:04:35.028Z,11.66
2019-05-09T06:05:35.169Z,11.53
2019-05-09T06:06:37.353Z,11.60
2019-05-09T06:07:37.643Z,11.67
2019-05-09T06:08:37.902Z,11.72
2019-05-09T06:09:37.981Z,11.77
2019-05-09T06:10:37.772Z,12.00
2019-05-09T06:11:38.446Z,12.01
2019-05-09T06:12:38.125Z,11.87
2019-05-09T06:13:38.003Z,11.79
2019-05-09T06:14:38.056Z,11.62
2019-05-09T06:15:38.139Z,11.69
2019-05-09T06:16:37.818Z,11.63
2019-05-09T06:17:38.408Z,11.69
2019-05-09T06:18:38.441Z,11.78
2019-05-09T06:19:38.725Z,11.88
2019-05-09T06:20:38.842Z,11.87
2019-05-09T06:21:38.125Z,12.01
2019-05-09T06:22:38.359Z,11.94
2019-05-09T06:23:38.520Z,11.94
2019-05-09T06:24:39.002Z,11.72
2019-05-09T06:25:40.332Z,11.75
2019-05-09T06:26:39.815Z,11.97
2019-05-09T06:27:42.197Z,11.98
2019-05-09T06:28:39.443Z,12.03
2019-05-09T06:29:40.334Z,11.85
2019-05-09T06:30:41.138Z,12.01
2019-05-09T06:31:40.880Z,12.48
2019-05-09T06:32:40.015Z,12.98
2019-05-09T06:33:46.641Z,13.46
2019-05-09T06:34:42.390Z,13.87
2019-05-09T06:35:41.484Z,14.66
2019-05-09T06:36:40.599Z,14.90
2019-05-09T06:37:40.769Z,15.31
2019-05-09T06:38:40.917Z,15.40
2019-05-09T06:39:41.083Z,15.91
2019-05-09T06:40:41.273Z,16.40
2019-05-09T06:41:41.381Z,16.50
2019-05-09T06:42:41.556Z,16.27
2019-05-09T06:43:41.752Z,15.05
2019-05-09T06:44:41.908Z,14.29
2019-05-09T06:45:42.072Z,14.01
2019-05-09T06:46:42.245Z,13.73
2019-05-09T06:47:42.431Z,13.27
2019-05-09T06:48:42.613Z,13.55
2019-05-09T06:49:42.785Z,13.99
2019-05-09T06:50:43.832Z,14.05
2019-05-09T06:51:43.096Z,14.79
2019-05-09T06:52:43.280Z,15.35
2019-05-09T06:53:43.476Z,15.52
2019-05-09T06:54:43.703Z,15.77
2019-05-09T06:55:43.788Z,16.14
2019-05-09T06:56:43.974Z,16.08
2019-05-09T06:57:44.152Z,16.04
2019-05-09T06:58:44.340Z,16.03
2019-05-09T06:59:44.514Z,16.40
2019-05-09T07:00:45.335Z,16.85
2019-05-09T07:01:44.822Z,16.75
2019-05-09T07:02:47.889Z,16.78
2019-05-09T07:03:45.175Z,17.21
2019-05-09T07:04:47.476Z,17.40
2019-05-09T07:05:45.499Z,17.02
2019-05-09T07:06:48.104Z,16.65
2019-05-09T07:08:04.713Z,16.67
2019-05-09T07:08:47.673Z,17.33
2019-05-09T07:09:47.904Z,16.11
2019-05-09T07:10:48.360Z,16.22
2019-05-09T07:11:48.642Z,16.50
2019-05-09T07:12:48.656Z,16.45
2019-05-09T07:13:47.881Z,16.67
2019-05-09T07:14:48.742Z,17.06
2019-05-09T07:15:48.284Z,17.43
2019-05-09T07:16:48.405Z,17.87
2019-05-09T07:17:48.197Z,18.10
2019-05-09T07:18:49.346Z,17.63
2019-05-09T07:19:48.872Z,17.02
2019-05-09T07:20:49.175Z,17.14
2019-05-09T07:21:48.557Z,17.36
2019-05-09T07:22:49.494Z,17.02
2019-05-09T07:23:48.620Z,16.69
2019-05-09T07:24:49.335Z,16.81
2019-05-09T07:25:49.020Z,16.69
2019-05-09T07:26:49.219Z,16.66
2019-05-09T07:27:49.385Z,16.99
2019-05-09T07:28:49.558Z,17.21
2019-05-09T07:29:49.782Z,17.09
2019-05-09T07:30:49.914Z,17.53
2019-05-09T07:31:50.106Z,17.12
2019-05-09T07:32:50.280Z,16.67
2019-05-09T07:33:50.452Z,16.66
2019-05-09T07:34:50.632Z,17.21
2019-05-09T07:35:50.782Z,17.45
2019-05-09T07:36:50.972Z,17.35
2019-05-09T07:37:51.151Z,16.73
2019-05-09T07:38:51.340Z,16.10
2019-05-09T07:39:52.352Z,15.46
2019-05-09T07:40:51.646Z,15.18
2019-05-09T07:41:51.807Z,15.38
2019-05-09T07:42:51.998Z,15.12
2019-05-09T07:43:52.177Z,15.05
2019-05-09T07:44:52.625Z,14.26
2019-05-09T07:45:53.585Z,13.76
2019-05-09T07:46:52.751Z,13.87
2019-05-09T07:47:52.905Z,13.94
2019-05-09T07:48:53.079Z,14.05
2019-05-09T07:49:53.866Z,14.42
2019-05-09T07:50:53.382Z,15.49
2019-05-09T07:51:53.582Z,15.88
2019-05-09T07:52:53.753Z,16.55
2019-05-09T07:53:53.904Z,17.27
2019-05-09T07:54:54.093Z,17.10
2019-05-09T07:55:54.248Z,17.83
2019-05-09T07:56:54.438Z,18.26
2019-05-09T07:57:55.618Z,19.09
2019-05-09T07:58:55.721Z,18.87
2019-05-09T07:59:54.973Z,18.97
2019-05-09T08:00:59.133Z,18.31
2019-05-09T08:01:58.115Z,17.79
2019-05-09T08:02:55.472Z,17.32
2019-05-09T08:03:58.145Z,17.03
2019-05-09T08:04:57.897Z,17.06
2019-05-09T08:05:57.981Z,17.17
2019-05-09T08:06:57.764Z,17.65
2019-05-09T08:07:58.591Z,18.36
2019-05-09T08:08:58.306Z,18.75
2019-05-09T08:09:58.006Z,18.91
2019-05-09T08:10:58.508Z,19.20
2019-05-09T08:11:58.727Z,18.72
2019-05-09T08:12:58.705Z,18.87
2019-05-09T08:13:58.872Z,18.78
2019-05-09T08:15:08.591Z,18.93
2019-05-09T08:15:59.703Z,18.82
2019-05-09T08:16:58.241Z,18.62
2019-05-09T08:17:59.445Z,18.65
2019-05-09T08:18:58.213Z,18.72
2019-05-09T08:19:59.387Z,19.05
2019-05-09T08:20:58.529Z,18.04
2019-05-09T08:21:58.724Z,17.65
2019-05-09T08:23:02.173Z,18.04
2019-05-09T08:23:59.092Z,18.05
2019-05-09T08:24:59.260Z,17.96
2019-05-09T08:26:04.329Z,17.58
2019-05-09T08:26:59.563Z,16.87
2019-05-09T08:27:59.720Z,16.99
2019-05-09T08:28:59.883Z,17.33
2019-05-09T08:30:00.038Z,17.57
2019-05-09T08:31:00.199Z,17.87
2019-05-09T08:32:00.349Z,18.23
2019-05-09T08:33:00.537Z,18.46
2019-05-09T08:34:00.724Z,18.83
2019-05-09T08:35:00.879Z,19.06
2019-05-09T08:36:01.028Z,19.32
2019-05-09T08:37:01.198Z,19.38
2019-05-09T08:38:01.356Z,18.87
2019-05-09T08:39:01.522Z,18.10
2019-05-09T08:40:01.700Z,16.85
2019-05-09T08:41:01.890Z,15.78
2019-05-09T08:42:02.025Z,16.13
2019-05-09T08:43:02.194Z,16.60
2019-05-09T08:44:02.360Z,17.06
2019-05-09T08:45:02.537Z,17.49
2019-05-09T08:46:02.747Z,17.87
2019-05-09T08:47:02.905Z,17.71
2019-05-09T08:48:03.068Z,17.89
2019-05-09T08:49:03.230Z,18.54
2019-05-09T08:50:04.377Z,19.16
2019-05-09T08:51:03.638Z,19.30
2019-05-09T08:52:12.685Z,18.49
2019-05-09T08:53:08.018Z,17.32
2019-05-09T08:54:04.230Z,16.96
2019-05-09T08:55:05.389Z,16.96
2019-05-09T08:56:04.675Z,17.32
2019-05-09T08:57:06.967Z,17.53
2019-05-09T08:58:05.007Z,17.77
2019-05-09T08:59:08.084Z,18.13
2019-05-09T09:00:05.408Z,18.14
2019-05-09T09:01:08.820Z,18.41
2019-05-09T09:02:14.803Z,18.53
2019-05-09T09:03:08.198Z,18.64
2019-05-09T09:04:08.099Z,18.65
2019-05-09T09:05:08.735Z,18.99
2019-05-09T09:06:08.258Z,19.05
2019-05-09T09:07:08.552Z,18.87
2019-05-09T09:08:08.517Z,19.34
2019-05-09T09:09:08.228Z,19.67
2019-05-09T09:10:08.662Z,19.79
2019-05-09T09:11:08.738Z,19.85
2019-05-09T09:12:24.750Z,19.83
2019-05-09T09:13:09.660Z,19.55
2019-05-09T09:14:08.897Z,19.13
2019-05-09T09:15:08.031Z,19.46
2019-05-09T09:16:18.374Z,19.31
2019-05-09T09:17:10.327Z,19.86
2019-05-09T09:18:08.915Z,19.27
2019-05-09T09:19:09.750Z,18.21
2019-05-09T09:20:08.995Z,17.53
2019-05-09T09:21:09.152Z,17.14
2019-05-09T09:22:09.295Z,17.12
2019-05-09T09:23:09.510Z,17.74
2019-05-09T09:24:09.659Z,17.76
2019-05-09T09:25:09.819Z,17.07
2019-05-09T09:26:10.963Z,16.73
2019-05-09T09:27:11.192Z,16.69
2019-05-09T09:28:11.394Z,16.40
2019-05-09T09:29:10.632Z,16.65
2019-05-09T09:30:20.424Z,17.51
2019-05-09T09:31:13.009Z,18.05
2019-05-09T09:32:11.898Z,17.99
2019-05-09T09:33:13.979Z,18.07
2019-05-09T09:34:12.910Z,18.10
2019-05-09T09:35:11.652Z,17.57
2019-05-09T09:36:11.848Z,16.78
2019-05-09T09:37:12.016Z,16.22
2019-05-09T09:38:12.154Z,15.64
2019-05-09T09:39:12.284Z,15.71
2019-05-09T09:40:12.452Z,15.84
2019-05-09T09:41:12.637Z,16.22
2019-05-09T09:42:12.818Z,16.34
2019-05-09T09:43:12.954Z,16.47
2019-05-09T09:44:13.126Z,16.69
2019-05-09T09:45:13.289Z,16.77
2019-05-09T09:46:14.804Z,16.75
2019-05-09T09:47:20.582Z,16.25
2019-05-09T09:48:17.978Z,15.86
2019-05-09T09:49:13.911Z,15.89
2019-05-09T09:50:14.060Z,15.92
2019-05-09T09:51:14.202Z,16.18
2019-05-09T09:52:14.350Z,16.60
2019-05-09T09:53:14.524Z,17.14
2019-05-09T09:54:14.692Z,16.81
2019-05-09T09:55:14.862Z,16.47
2019-05-09T09:56:17.655Z,16.08
2019-05-09T09:57:15.179Z,15.71
2019-05-09T09:58:15.362Z,15.71
2019-05-09T09:59:15.518Z,15.59
2019-05-09T10:00:17.958Z,15.51
2019-05-09T10:01:18.076Z,15.76
2019-05-09T10:02:16.082Z,16.40
2019-05-09T10:03:18.515Z,17.17
2019-05-09T10:04:23.099Z,17.73
2019-05-09T10:05:18.615Z,18.09
2019-05-09T10:06:32.412Z,18.56
2019-05-09T10:07:18.928Z,18.46
2019-05-09T10:08:18.190Z,18.36
2019-05-09T10:09:18.032Z,18.14
2019-05-09T10:10:18.467Z,17.92
2019-05-09T10:11:18.420Z,17.30
2019-05-09T10:12:18.226Z,17.07
2019-05-09T10:13:18.788Z,17.17
2019-05-09T10:14:18.626Z,17.63
2019-05-09T10:15:19.147Z,17.27
2019-05-09T10:16:29.121Z,17.43
2019-05-09T10:17:21.600Z,17.40
2019-05-09T10:18:19.521Z,17.14
2019-05-09T10:19:18.733Z,16.66
2019-05-09T10:20:18.800Z,16.66
2019-05-09T10:21:18.988Z,16.63
2019-05-09T10:22:23.646Z,16.62
2019-05-09T10:23:21.733Z,16.70
2019-05-09T10:24:20.458Z,16.85
2019-05-09T10:25:19.577Z,16.59
2019-05-09T10:26:19.764Z,16.34
2019-05-09T10:27:19.925Z,16.29
2019-05-09T10:28:21.663Z,16.32
2019-05-09T10:29:21.249Z,16.08
2019-05-09T10:30:20.916Z,15.66
2019-05-09T10:31:21.932Z,15.59
2019-05-09T10:32:20.696Z,15.44
2019-05-09T10:33:20.926Z,15.51
2019-05-09T10:34:21.915Z,15.27
2019-05-09T10:35:21.328Z,14.95
2019-05-09T10:36:21.520Z,14.69
2019-05-09T10:37:21.693Z,14.66
2019-05-09T10:38:21.889Z,14.29
2019-05-09T10:39:22.061Z,14.21
2019-05-09T10:40:22.263Z,14.19
2019-05-09T10:41:22.477Z,14.11
2019-05-09T10:42:22.676Z,14.30
2019-05-09T10:43:34.427Z,14.61
2019-05-09T10:44:23.996Z,14.80
2019-05-09T10:45:23.186Z,15.31
2019-05-09T10:46:23.433Z,15.60
2019-05-09T10:47:23.640Z,15.95
2019-05-09T10:48:24.173Z,16.62
2019-05-09T10:49:24.986Z,16.85
2019-05-09T10:50:24.130Z,16.96
2019-05-09T10:51:24.345Z,17.09
2019-05-09T10:52:24.564Z,16.87
2019-05-09T10:53:24.738Z,17.02
2019-05-09T10:54:24.900Z,17.58
2019-05-09T10:55:25.074Z,17.79
2019-05-09T10:56:27.847Z,17.87
2019-05-09T10:57:30.903Z,17.92
2019-05-09T10:58:27.995Z,17.94
2019-05-09T10:59:25.807Z,17.42
2019-05-09T11:00:25.957Z,16.92
2019-05-09T11:01:28.671Z,17.09
2019-05-09T11:02:27.966Z,17.25
2019-05-09T11:03:27.449Z,17.46
2019-05-09T11:04:28.627Z,16.99
2019-05-09T11:05:27.722Z,16.85
2019-05-09T11:06:28.847Z,17.24
2019-05-09T11:07:29.093Z,17.73
2019-05-09T11:08:28.715Z,17.55
2019-05-09T11:09:29.229Z,17.35
2019-05-09T11:10:32.566Z,17.47
2019-05-09T11:11:29.040Z,17.66
2019-05-09T11:12:28.058Z,17.87
2019-05-09T11:13:28.932Z,17.81
2019-05-09T11:14:36.455Z,18.01
2019-05-09T11:15:30.611Z,17.80
2019-05-09T11:16:42.051Z,17.68
2019-05-09T11:17:30.911Z,17.30
2019-05-09T11:18:29.037Z,17.07
2019-05-09T11:19:29.210Z,17.09
2019-05-09T11:20:29.399Z,16.99
2019-05-09T11:21:29.591Z,16.91
2019-05-09T11:22:29.837Z,16.67
2019-05-09T11:23:30.018Z,16.72
2019-05-09T11:24:41.175Z,16.77
2019-05-09T11:25:32.940Z,16.85
2019-05-09T11:26:30.454Z,16.85
2019-05-09T11:27:30.944Z,16.81
2019-05-09T11:28:30.893Z,16.69
2019-05-09T11:29:31.087Z,15.84
2019-05-09T11:30:31.266Z,15.53
2019-05-09T11:31:31.430Z,15.48
2019-05-09T11:32:32.605Z,15.51
2019-05-09T11:33:31.775Z,15.12
2019-05-09T11:34:31.975Z,14.91
2019-05-09T11:35:32.130Z,15.16
2019-05-09T11:36:32.300Z,15.13
2019-05-09T11:37:33.439Z,15.00
2019-05-09T11:38:38.097Z,14.85
2019-05-09T11:39:39.032Z,14.45
2019-05-09T11:40:37.669Z,14.17
2019-05-09T11:41:33.210Z,14.08
2019-05-09T11:42:33.637Z,14.27
2019-05-09T11:43:34.567Z,14.29
2019-05-09T11:44:34.476Z,14.45
2019-05-09T11:45:33.863Z,14.69
2019-05-09T11:46:34.036Z,14.90
2019-05-09T11:47:42.584Z,14.98
2019-05-09T11:48:38.157Z,14.60
2019-05-09T11:49:34.470Z,14.11
2019-05-09T11:50:34.633Z,14.26
2019-05-09T11:51:34.774Z,14.41
2019-05-09T11:52:34.960Z,14.42
2019-05-09T11:53:35.103Z,14.61
2019-05-09T11:54:35.457Z,14.57
2019-05-09T11:55:37.789Z,14.61
2019-05-09T11:56:38.382Z,14.46
2019-05-09T11:57:38.176Z,14.87
2019-05-09T11:58:37.968Z,15.30
2019-05-09T11:59:37.967Z,15.48
2019-05-09T12:00:38.117Z,15.77
2019-05-09T12:01:39.679Z,15.77
2019-05-09T12:02:38.535Z,15.88
2019-05-09T12:03:38.903Z,16.10
2019-05-09T12:04:38.074Z,16.45
2019-05-09T12:05:38.086Z,16.70
2019-05-09T12:06:38.324Z,16.87
2019-05-09T12:07:38.444Z,16.85
2019-05-09T12:08:38.771Z,16.91
2019-05-09T12:09:39.455Z,16.41
2019-05-09T12:10:38.326Z,15.88
2019-05-09T12:11:43.958Z,15.98
2019-05-09T12:12:40.366Z,16.42
2019-05-09T12:13:39.587Z,16.72
2019-05-09T12:14:38.830Z,16.65
2019-05-09T12:15:39.196Z,15.85
2019-05-09T12:16:40.241Z,15.66
2019-05-09T12:17:51.034Z,16.07
2019-05-09T12:18:42.448Z,16.48
2019-05-09T12:19:40.790Z,16.60
2019-05-09T12:20:40.050Z,16.59
2019-05-09T12:21:47.461Z,16.62
2019-05-09T12:22:42.345Z,16.90
2019-05-09T12:23:40.565Z,17.00
2019-05-09T12:24:40.697Z,16.98
2019-05-09T12:25:40.897Z,17.18
2019-05-09T12:26:41.045Z,17.43
2019-05-09T12:27:42.195Z,17.43
2019-05-09T12:28:41.463Z,17.51
2019-05-09T12:29:42.459Z,17.07
2019-05-09T12:30:41.848Z,17.09
2019-05-09T12:31:42.047Z,17.46
2019-05-09T12:32:42.191Z,17.27
2019-05-09T12:33:42.962Z,17.58
2019-05-09T12:34:42.566Z,17.80
2019-05-09T12:35:42.718Z,17.87
2019-05-09T12:36:42.914Z,18.01
2019-05-09T12:37:44.083Z,18.35
2019-05-09T12:38:46.116Z,18.39
2019-05-09T12:39:47.797Z,18.53
2019-05-09T12:40:43.531Z,18.86
2019-05-09T12:41:43.701Z,18.89
2019-05-09T12:42:43.903Z,19.13
2019-05-09T12:43:44.095Z,19.38
2019-05-09T12:44:44.261Z,19.52
2019-05-09T12:45:44.427Z,19.58
2019-05-09T12:46:44.608Z,19.87
2019-05-09T12:47:44.961Z,19.65
2019-05-09T12:48:45.029Z,19.28
2019-05-09T12:49:45.236Z,18.96
2019-05-09T12:50:45.368Z,18.75
2019-05-09T12:51:45.520Z,18.65
2019-05-09T12:52:45.719Z,18.66
2019-05-09T12:53:48.474Z,18.23
2019-05-09T12:54:48.346Z,18.28
2019-05-09T12:55:47.582Z,18.49
2019-05-09T12:56:48.553Z,18.49
2019-05-09T12:57:48.966Z,18.38
2019-05-09T12:58:47.956Z,18.50
2019-05-09T12:59:52.492Z,18.42
2019-05-09T13:00:51.955Z,18.13
2019-05-09T13:01:49.196Z,18.65